Time;durP1;ratioP1;P1;durP2;ratioP2;P2;SDS_P1;SDS_P2;PMS_P1;PMS_P2;Temp;Humidity;BMP_temperature;BMP_pressure;BME280_temperature;BME280_humidity;BME280_pressure;Samples;Min_cycle;Max_cycle;Signal;HPM_P1;HPM_P2
2022/03/06 00:00:09;;;;;;;0.60;0.60;;;20.40;34.70;;;;;;5116159;28;20127;-79
2022/03/06 00:02:38;;;;;;;0.55;0.55;;;20.40;34.70;;;;;;5116263;28;20151;-79
2022/03/06 00:05:05;;;;;;;0.73;0.63;;;20.40;34.70;;;;;;5116320;28;20057;-79
2022/03/06 00:07:30;;;;;;;0.80;0.75;;;20.40;34.70;;;;;;5116194;28;20051;-79
2022/03/06 00:09:56;;;;;;;0.60;0.60;;;20.40;34.70;;;;;;5116159;28;20384;-79
2022/03/06 00:12:21;;;;;;;0.52;0.52;;;20.40;34.70;;;;;;5097849;28;20105;-79
2022/03/06 00:14:47;;;;;;;0.57;0.57;;;20.40;34.70;;;;;;5116100;28;20078;-79
2022/03/06 00:17:13;;;;;;;0.63;0.60;;;20.40;34.70;;;;;;5097867;28;20501;-79
2022/03/06 00:19:38;;;;;;;0.77;0.77;;;20.40;34.70;;;;;;5115789;28;20082;-79
2022/03/06 00:22:05;;;;;;;0.57;0.57;;;20.40;34.70;;;;;;5097558;28;20142;-79
2022/03/06 00:24:32;;;;;;;0.93;0.90;;;20.40;34.70;;;;;;5115814;28;20047;-79
2022/03/06 00:26:58;;;;;;;0.60;0.60;;;20.40;34.70;;;;;;5115937;28;20066;-79
2022/03/06 00:29:23;;;;;;;0.55;0.55;;;20.40;34.70;;;;;;5096242;28;20052;-79
2022/03/06 00:31:49;;;;;;;0.40;0.40;;;20.40;34.70;;;;;;5115471;28;20522;-79
2022/03/06 00:34:14;;;;;;;0.85;0.70;;;20.40;34.70;;;;;;5116012;28;20487;-79
2022/03/06 00:36:40;;;;;;;0.60;0.60;;;20.40;34.70;;;;;;5112873;28;20106;-79
2022/03/06 00:39:05;;;;;;;0.60;0.60;;;20.40;34.70;;;;;;5114061;28;20058;-79
2022/03/06 00:41:31;;;;;;;0.70;0.70;;;20.40;34.70;;;;;;5115937;28;20059;-79
2022/03/06 00:43:57;;;;;;;0.60;0.60;;;20.40;34.70;;;;;;5115650;28;20043;-79
2022/03/06 00:46:22;;;;;;;0.70;0.70;;;20.40;34.70;;;;;;5115917;28;20079;-79
2022/03/06 00:48:48;;;;;;;1.00;0.65;;;20.40;34.70;;;;;;5114446;28;20052;-79
2022/03/06 00:51:15;;;;;;;0.52;0.52;;;20.40;34.70;;;;;;5097203;28;20536;-79
2022/03/06 00:53:42;;;;;;;0.60;0.60;;;20.40;34.70;;;;;;5097067;28;20051;-79
2022/03/06 00:56:08;;;;;;;0.65;0.65;;;20.40;34.70;;;;;;5115781;28;20044;-79
2022/03/06 00:58:33;;;;;;;0.63;0.63;;;20.40;34.70;;;;;;5115349;28;20128;-79
2022/03/06 01:01:00;;;;;;;0.80;0.68;;;20.40;34.70;;;;;;5115555;28;20429;-79
2022/03/06 01:03:25;;;;;;;0.93;0.60;;;20.40;34.70;;;;;;5115581;28;20064;-79
2022/03/06 01:05:51;;;;;;;1.35;0.50;;;20.40;34.70;;;;;;5096488;28;20100;-79
2022/03/06 01:08:16;;;;;;;0.75;0.75;;;20.40;34.70;;;;;;5115151;28;20497;-79
2022/03/06 01:10:44;;;;;;;0.65;0.65;;;20.40;34.70;;;;;;5115359;28;20071;-79
2022/03/06 01:13:11;;;;;;;0.60;0.60;;;20.40;34.70;;;;;;5115176;28;20063;-79
2022/03/06 01:15:36;;;;;;;0.68;0.60;;;20.40;34.70;;;;;;5114728;28;20059;-79
2022/03/06 01:18:06;;;;;;;0.50;0.50;;;20.40;34.70;;;;;;5114955;28;20518;-79
2022/03/06 01:20:35;;;;;;;0.50;0.50;;;20.40;34.70;;;;;;5114961;28;20086;-79
2022/03/06 01:23:01;;;;;;;0.60;0.60;;;20.40;34.70;;;;;;5114803;28;20146;-79
2022/03/06 01:25:27;;;;;;;0.55;0.55;;;20.40;34.70;;;;;;5114989;28;20440;-79
2022/03/06 01:27:53;;;;;;;0.70;0.70;;;20.40;34.70;;;;;;5114882;28;20055;-79
2022/03/06 01:30:21;;;;;;;0.50;0.50;;;20.40;34.70;;;;;;5114755;28;20101;-79
2022/03/06 01:32:47;;;;;;;0.57;0.57;;;20.40;34.70;;;;;;5114773;28;20051;-79
2022/03/06 01:35:13;;;;;;;0.68;0.60;;;20.40;34.70;;;;;;5114899;28;20079;-79
2022/03/06 01:37:39;;;;;;;0.70;0.70;;;20.40;34.70;;;;;;5095979;28;20880;-79
2022/03/06 01:40:06;;;;;;;1.00;0.70;;;20.40;34.80;;;;;;5094945;28;20048;-79
2022/03/06 01:42:31;;;;;;;0.77;0.60;;;20.40;34.80;;;;;;5079759;28;20047;-79
2022/03/06 01:44:57;;;;;;;0.73;0.73;;;20.40;34.80;;;;;;5114726;28;20176;-78
2022/03/06 01:47:39;;;;;;;0.82;0.77;;;20.40;34.70;;;;;;5096297;28;20071;-78
2022/03/06 01:50:14;;;;;;;0.60;0.60;;;20.40;34.70;;;;;;5114346;28;20054;-79
2022/03/06 01:52:40;;;;;;;0.70;0.70;;;20.40;34.70;;;;;;5114918;28;20051;-79
2022/03/06 01:55:06;;;;;;;0.60;0.60;;;20.40;34.70;;;;;;5114571;28;20086;-79
2022/03/06 01:57:32;;;;;;;0.75;0.75;;;20.40;34.70;;;;;;5096192;28;20506;-79
2022/03/06 02:00:05;;;;;;;0.70;0.70;;;20.40;34.80;;;;;;5114372;28;20047;-79
2022/03/06 02:02:37;;;;;;;0.80;0.80;;;20.40;34.80;;;;;;5114428;28;20567;-79
2022/03/06 02:05:03;;;;;;;0.68;0.68;;;20.40;34.80;;;;;;5096018;28;20085;-79
2022/03/06 02:07:29;;;;;;;0.70;0.70;;;20.40;34.70;;;;;;5096200;28;20059;-79
2022/03/06 02:09:57;;;;;;;0.77;0.73;;;20.40;34.80;;;;;;5114206;28;20043;-79
2022/03/06 02:12:23;;;;;;;0.90;0.70;;;20.40;34.70;;;;;;5114308;28;20049;-79
2022/03/06 02:14:57;;;;;;;0.70;0.70;;;20.40;34.70;;;;;;5114292;28;20060;-79
2022/03/06 02:17:24;;;;;;;0.85;0.75;;;20.40;34.70;;;;;;5095781;28;20060;-79
2022/03/06 02:20:05;;;;;;;1.17;0.80;;;20.40;34.70;;;;;;5095668;28;20054;-79
2022/03/06 02:22:33;;;;;;;0.52;0.52;;;20.40;34.70;;;;;;5114124;28;20059;-79
2022/03/06 02:25:00;;;;;;;0.70;0.70;;;20.40;34.70;;;;;;5113933;28;20044;-79
2022/03/06 02:27:26;;;;;;;0.73;0.73;;;20.40;34.70;;;;;;5113865;28;20058;-79
2022/03/06 02:29:52;;;;;;;0.50;0.50;;;20.40;34.70;;;;;;5113997;28;20429;-79
2022/03/06 02:32:20;;;;;;;0.75;0.75;;;20.40;34.70;;;;;;5112852;28;20062;-79
2022/03/06 02:34:48;;;;;;;0.65;0.50;;;20.40;34.70;;;;;;5095902;28;20048;-79
2022/03/06 02:37:15;;;;;;;0.50;0.50;;;20.40;34.70;;;;;;5113833;28;20055;-79
2022/03/06 02:39:44;;;;;;;0.55;0.55;;;20.40;34.70;;;;;;5113435;28;20079;-79
2022/03/06 02:42:21;;;;;;;0.73;0.60;;;20.40;34.70;;;;;;5113773;28;20043;-79
2022/03/06 02:44:47;;;;;;;0.80;0.65;;;20.40;34.70;;;;;;5113746;28;20055;-78
2022/03/06 02:47:12;;;;;;;0.65;0.65;;;20.40;34.70;;;;;;5094179;28;20109;-79
2022/03/06 02:49:39;;;;;;;0.80;0.70;;;20.40;34.70;;;;;;5112538;28;20044;-79
2022/03/06 02:52:08;;;;;;;0.50;0.50;;;20.40;34.70;;;;;;5113398;28;20052;-79
2022/03/06 02:54:36;;;;;;;0.70;0.70;;;20.40;34.70;;;;;;5095369;28;20051;-79
2022/03/06 02:57:04;;;;;;;0.80;0.73;;;20.40;34.70;;;;;;5113478;28;20131;-79
2022/03/06 02:59:29;;;;;;;0.60;0.60;;;20.40;34.70;;;;;;5095687;28;20043;-79
2022/03/06 03:01:55;;;;;;;0.60;0.60;;;20.40;34.70;;;;;;5093227;28;20185;-79
2022/03/06 03:04:21;;;;;;;0.60;0.60;;;20.40;34.70;;;;;;5094994;28;20140;-79
2022/03/06 03:06:50;;;;;;;0.70;0.70;;;20.40;34.80;;;;;;5113254;28;20047;-78
2022/03/06 03:09:19;;;;;;;0.90;0.70;;;20.40;34.70;;;;;;5093896;28;20055;-79
2022/03/06 03:11:46;;;;;;;0.70;0.70;;;20.40;34.70;;;;;;5112502;28;20056;-79
2022/03/06 03:14:13;;;;;;;0.65;0.65;;;20.40;34.70;;;;;;5094724;28;20084;-79
2022/03/06 03:16:40;;;;;;;0.68;0.68;;;20.40;34.70;;;;;;5112895;28;20064;-79
2022/03/06 03:19:05;;;;;;;0.57;0.57;;;20.40;34.70;;;;;;5093270;28;20060;-79
2022/03/06 03:21:31;;;;;;;0.60;0.60;;;20.40;34.70;;;;;;5095171;28;20096;-79
2022/03/06 03:23:57;;;;;;;0.60;0.60;;;20.40;34.70;;;;;;5113216;28;20052;-79
2022/03/06 03:26:22;;;;;;;0.60;0.57;;;20.40;34.70;;;;;;5111834;28;20047;-79
2022/03/06 03:28:48;;;;;;;0.70;0.70;;;20.40;34.70;;;;;;5094741;28;20087;-79
2022/03/06 03:31:13;;;;;;;0.70;0.70;;;20.40;34.70;;;;;;5113322;28;20063;-79
2022/03/06 03:33:39;;;;;;;0.50;0.50;;;20.40;34.70;;;;;;5094704;28;20560;-79
2022/03/06 03:36:05;;;;;;;0.65;0.65;;;20.40;34.70;;;;;;5112992;28;20044;-79
2022/03/06 03:38:30;;;;;;;0.50;0.50;;;20.40;34.70;;;;;;5094204;28;20051;-79
2022/03/06 03:40:56;;;;;;;0.60;0.60;;;20.40;34.70;;;;;;5094505;28;20052;-79
2022/03/06 03:43:22;;;;;;;0.73;0.70;;;20.40;34.70;;;;;;5111588;28;20047;-79
2022/03/06 03:45:49;;;;;;;0.68;0.68;;;20.40;34.70;;;;;;5113161;28;20054;-79
2022/03/06 03:48:14;;;;;;;0.93;0.75;;;20.40;34.70;;;;;;5094566;28;20453;-79
2022/03/06 03:50:40;;;;;;;0.60;0.60;;;20.40;34.70;;;;;;5112847;28;20047;-79
2022/03/06 03:53:06;;;;;;;0.77;0.77;;;20.40;34.70;;;;;;5112770;28;20101;-79
2022/03/06 03:55:31;;;;;;;0.70;0.70;;;20.40;34.70;;;;;;5094418;28;20571;-79
2022/03/06 03:57:57;;;;;;;0.70;0.70;;;20.40;34.70;;;;;;5112503;28;20052;-79
2022/03/06 04:00:22;;;;;;;0.70;0.63;;;20.40;34.70;;;;;;5109510;28;20135;-79
2022/03/06 04:02:48;;;;;;;0.70;0.70;;;20.40;34.70;;;;;;5112868;28;20048;-79
2022/03/06 04:05:13;;;;;;;0.68;0.68;;;20.40;34.70;;;;;;5112945;28;20184;-79
2022/03/06 04:07:39;;;;;;;0.70;0.70;;;20.40;34.80;;;;;;5112598;28;20040;-79
2022/03/06 04:10:05;;;;;;;0.75;0.70;;;20.40;34.80;;;;;;5111086;28;20044;-78
2022/03/06 04:12:30;;;;;;;0.70;0.70;;;20.40;34.70;;;;;;5094239;28;20098;-79
2022/03/06 04:14:56;;;;;;;0.55;0.55;;;20.40;34.80;;;;;;5112529;28;20081;-79
2022/03/06 04:17:22;;;;;;;0.70;0.70;;;20.40;34.70;;;;;;5112274;28;20059;-78
2022/03/06 04:19:47;;;;;;;0.80;0.80;;;20.40;34.70;;;;;;5093089;28;20487;-79
2022/03/06 04:22:13;;;;;;;0.68;0.68;;;20.40;34.70;;;;;;5112887;28;20112;-79
2022/03/06 04:24:39;;;;;;;0.90;0.90;;;20.40;34.70;;;;;;5115889;28;20078;-79
2022/03/06 04:27:06;;;;;;;0.60;0.60;;;20.40;34.70;;;;;;5097667;28;20549;-79
2022/03/06 04:29:33;;;;;;;1.17;0.70;;;20.40;34.70;;;;;;5116418;28;20433;-79
2022/03/06 04:31:58;;;;;;;0.60;0.60;;;20.40;34.70;;;;;;5097505;28;20063;-79
2022/03/06 04:34:24;;;;;;;0.63;0.63;;;20.40;34.70;;;;;;5115815;28;20047;-79
2022/03/06 04:36:50;;;;;;;0.63;0.63;;;20.30;34.70;;;;;;5115681;28;20406;-79
2022/03/06 04:39:15;;;;;;;0.80;0.80;;;20.40;34.70;;;;;;5095977;28;20063;-79
2022/03/06 04:41:41;;;;;;;0.80;0.70;;;20.40;34.70;;;;;;5115520;28;20055;-79
2022/03/06 04:44:07;;;;;;;0.80;0.80;;;20.40;34.70;;;;;;5115469;28;20503;-79
2022/03/06 04:46:32;;;;;;;0.68;0.68;;;20.40;34.70;;;;;;5116081;28;20078;-79
2022/03/06 04:48:58;;;;;;;0.70;0.70;;;20.40;34.70;;;;;;5115825;28;20477;-79
2022/03/06 04:51:23;;;;;;;0.68;0.68;;;20.40;34.70;;;;;;5114307;28;20572;-79
2022/03/06 04:53:49;;;;;;;0.70;0.70;;;20.40;34.70;;;;;;5115619;28;20104;-79
2022/03/06 04:56:14;;;;;;;1.00;0.73;;;20.40;34.70;;;;;;5115447;28;20055;-78
2022/03/06 04:58:40;;;;;;;0.52;0.52;;;20.40;34.70;;;;;;5097136;28;20051;-78
2022/03/06 05:01:06;;;;;;;0.60;0.60;;;20.40;34.70;;;;;;5097016;28;20055;-79
2022/03/06 05:03:32;;;;;;;0.68;0.68;;;20.40;34.70;;;;;;5115332;28;20055;-79
2022/03/06 05:05:58;;;;;;;0.63;0.60;;;20.40;34.70;;;;;;5115604;28;20075;-79
2022/03/06 05:08:26;;;;;;;0.85;0.60;;;20.40;34.70;;;;;;5114032;28;20457;-78
2022/03/06 05:10:53;;;;;;;0.70;0.70;;;20.40;34.70;;;;;;5115345;28;20489;-79
2022/03/06 05:13:19;;;;;;;0.70;0.70;;;20.40;34.70;;;;;;5115206;28;20066;-79
2022/03/06 05:15:44;;;;;;;0.60;0.60;;;20.40;34.70;;;;;;5096888;28;20056;-79
2022/03/06 05:18:11;;;;;;;0.60;0.60;;;20.40;34.70;;;;;;5115028;28;20051;-79
2022/03/06 05:20:37;;;;;;;0.73;0.73;;;20.40;34.70;;;;;;5114995;28;20047;-79
2022/03/06 05:23:03;;;;;;;0.70;0.70;;;20.40;34.70;;;;;;5115073;28;20556;-79
2022/03/06 05:25:28;;;;;;;1.02;0.88;;;20.30;34.70;;;;;;5115505;28;20101;-79
2022/03/06 05:27:54;;;;;;;0.60;0.60;;;20.30;34.70;;;;;;5115193;28;20101;-79
2022/03/06 05:30:20;;;;;;;0.85;0.85;;;20.40;34.70;;;;;;5115447;28;20126;-78
2022/03/06 05:32:45;;;;;;;0.80;0.70;;;20.30;34.70;;;;;;5114898;28;20058;-79
2022/03/06 05:35:11;;;;;;;0.70;0.60;;;20.40;34.70;;;;;;5096193;28;20047;-79
2022/03/06 05:37:38;;;;;;;0.50;0.50;;;20.40;34.70;;;;;;5114726;28;20066;-78
2022/03/06 05:40:04;;;;;;;0.63;0.63;;;20.40;34.70;;;;;;5114685;28;20047;-79
2022/03/06 05:42:30;;;;;;;1.15;0.80;;;20.40;34.70;;;;;;5114638;28;20060;-79
2022/03/06 05:44:55;;;;;;;0.68;0.68;;;20.40;34.70;;;;;;5114767;28;20466;-78
2022/03/06 05:47:21;;;;;;;0.55;0.50;;;20.30;34.70;;;;;;5114866;28;20444;-79
2022/03/06 05:49:46;;;;;;;0.98;0.70;;;20.30;34.70;;;;;;5114635;28;20487;-79
2022/03/06 05:52:12;;;;;;;0.80;0.60;;;20.30;34.70;;;;;;5114467;28;20498;-79
2022/03/06 05:54:38;;;;;;;0.60;0.60;;;20.30;34.70;;;;;;5114530;28;20487;-79
2022/03/06 05:57:06;;;;;;;0.70;0.70;;;20.30;34.70;;;;;;5114526;28;20491;-79
2022/03/06 05:59:33;;;;;;;0.60;0.60;;;20.40;34.70;;;;;;5114297;28;20414;-79
2022/03/06 06:01:58;;;;;;;0.60;0.60;;;20.40;34.70;;;;;;5112226;28;20104;-79
2022/03/06 06:04:24;;;;;;;0.60;0.60;;;20.40;34.70;;;;;;5114748;28;20496;-79
2022/03/06 06:06:50;;;;;;;0.80;0.80;;;20.30;34.70;;;;;;5095312;28;20066;-79
2022/03/06 06:09:15;;;;;;;0.80;0.80;;;20.30;34.60;;;;;;5114483;28;20051;-79
2022/03/06 06:11:41;;;;;;;1.08;0.70;;;20.40;34.70;;;;;;5113912;28;20061;-79
2022/03/06 06:14:06;;;;;;;0.65;0.65;;;20.40;34.70;;;;;;5114250;28;20541;-79
2022/03/06 06:16:32;;;;;;;1.13;0.82;;;20.40;34.70;;;;;;5113835;28;20104;-79
2022/03/06 06:18:58;;;;;;;0.50;0.50;;;20.30;34.60;;;;;;5113998;28;20538;-79
2022/03/06 06:21:24;;;;;;;0.65;0.65;;;20.30;34.60;;;;;;5114022;28;20048;-79
2022/03/06 06:23:50;;;;;;;0.70;0.70;;;20.40;34.70;;;;;;5114115;28;20139;-79
2022/03/06 06:26:16;;;;;;;0.60;0.60;;;20.30;34.60;;;;;;5112799;28;20090;-79
2022/03/06 06:28:41;;;;;;;0.75;0.70;;;20.30;34.60;;;;;;5113768;28;20059;-79
2022/03/06 06:31:08;;;;;;;0.73;0.73;;;20.30;34.60;;;;;;5114119;28;20046;-79
2022/03/06 06:33:34;;;;;;;0.70;0.70;;;20.30;34.60;;;;;;5113891;28;20047;-79
2022/03/06 06:36:01;;;;;;;0.70;0.60;;;20.40;34.70;;;;;;5114163;28;20132;-79
2022/03/06 06:38:27;;;;;;;1.05;0.80;;;20.40;34.70;;;;;;5114114;28;20495;-79
2022/03/06 06:40:53;;;;;;;0.70;0.70;;;20.30;34.60;;;;;;5113792;28;20502;-79
2022/03/06 06:43:19;;;;;;;0.80;0.80;;;20.40;34.60;;;;;;5112592;28;20082;-78
2022/03/06 06:45:46;;;;;;;0.80;0.80;;;20.40;34.70;;;;;;5113195;28;20062;-79
2022/03/06 06:48:12;;;;;;;0.70;0.70;;;20.40;34.60;;;;;;5113380;28;20052;-79
2022/03/06 06:50:37;;;;;;;0.70;0.70;;;20.40;34.60;;;;;;5113912;28;20046;-79
2022/03/06 06:53:03;;;;;;;0.57;0.57;;;20.40;34.60;;;;;;5113597;28;20052;-79
2022/03/06 06:55:29;;;;;;;0.70;0.70;;;20.40;34.60;;;;;;5113636;28;20043;-79
2022/03/06 06:57:55;;;;;;;0.60;0.60;;;20.40;34.60;;;;;;5113390;28;20051;-79
2022/03/06 07:00:21;;;;;;;0.60;0.60;;;20.40;34.60;;;;;;5093533;28;20044;-79
2022/03/06 07:02:46;;;;;;;0.82;0.70;;;20.40;34.60;;;;;;5113532;28;20079;-79
2022/03/06 07:05:13;;;;;;;0.60;0.60;;;20.40;34.60;;;;;;5113442;28;20128;-79
2022/03/06 07:07:38;;;;;;;0.60;0.60;;;20.40;34.60;;;;;;5113359;28;20058;-79
2022/03/06 07:10:05;;;;;;;0.60;0.60;;;20.40;34.60;;;;;;5113676;28;20044;-79
2022/03/06 07:12:39;;;;;;;0.80;0.80;;;20.40;34.60;;;;;;5094961;28;20047;-79
2022/03/06 07:15:05;;;;;;;0.70;0.70;;;20.40;34.50;;;;;;5093341;28;20054;-79
2022/03/06 07:17:31;;;;;;;0.70;0.70;;;20.40;34.50;;;;;;5113203;28;20465;-79
2022/03/06 07:19:56;;;;;;;0.73;0.73;;;20.40;34.50;;;;;;5112975;28;20134;-79
2022/03/06 07:22:22;;;;;;;0.60;0.60;;;20.40;34.50;;;;;;5113221;28;20044;-79
2022/03/06 07:24:48;;;;;;;0.65;0.65;;;20.40;34.50;;;;;;5095502;28;20051;-79
2022/03/06 07:27:13;;;;;;;0.68;0.60;;;20.40;34.50;;;;;;5113153;28;20105;-78
2022/03/06 07:29:40;;;;;;;0.60;0.60;;;20.40;34.70;;;;;;5113172;28;20075;-79
2022/03/06 07:32:06;;;;;;;0.90;0.80;;;20.40;34.50;;;;;;5094982;28;20059;-79
2022/03/06 07:34:33;;;;;;;0.77;0.77;;;20.40;34.50;;;;;;5113373;28;20138;-79
2022/03/06 07:36:59;;;;;;;0.60;0.60;;;20.40;34.50;;;;;;5113019;28;20063;-79
2022/03/06 07:39:24;;;;;;;0.65;0.65;;;20.50;34.50;;;;;;5112807;28;20058;-79
2022/03/06 07:41:50;;;;;;;0.60;0.60;;;20.50;34.50;;;;;;5112831;28;20138;-79
2022/03/06 07:44:15;;;;;;;0.60;0.60;;;20.50;34.50;;;;;;5112802;28;20048;-79
2022/03/06 07:46:41;;;;;;;0.60;0.60;;;20.50;34.50;;;;;;5112809;28;20047;-79
2022/03/06 07:49:07;;;;;;;0.60;0.52;;;20.50;34.40;;;;;;5112659;28;20059;-79
2022/03/06 07:51:32;;;;;;;0.85;0.70;;;20.50;34.40;;;;;;5113131;28;20051;-78
2022/03/06 07:53:58;;;;;;;0.60;0.60;;;20.50;34.40;;;;;;5112749;28;20109;-79
2022/03/06 07:56:23;;;;;;;0.60;0.60;;;20.50;34.30;;;;;;5112662;28;20052;-79
2022/03/06 07:58:49;;;;;;;0.60;0.60;;;20.60;34.30;;;;;;5115514;28;20130;-79
2022/03/06 08:01:15;;;;;;;0.80;0.70;;;20.60;34.30;;;;;;5116310;28;20067;-79
2022/03/06 08:03:40;;;;;;;0.93;0.70;;;20.60;34.30;;;;;;5116366;28;20047;-79
2022/03/06 08:06:06;;;;;;;0.70;0.70;;;20.60;34.30;;;;;;5116126;28;20063;-79
2022/03/06 08:08:31;;;;;;;0.70;0.70;;;20.60;34.30;;;;;;5116282;28;20067;-79
2022/03/06 08:10:57;;;;;;;0.75;0.75;;;20.60;34.30;;;;;;5115152;28;20039;-79
2022/03/06 08:13:22;;;;;;;0.60;0.60;;;20.60;34.30;;;;;;5116108;28;20130;-79
2022/03/06 08:15:48;;;;;;;0.65;0.65;;;20.60;34.20;;;;;;5115926;28;20048;-79
2022/03/06 08:18:13;;;;;;;1.10;1.00;;;20.60;34.20;;;;;;5115352;28;20062;-79
2022/03/06 08:20:39;;;;;;;0.70;0.70;;;20.60;34.20;;;;;;5115918;28;20047;-79
2022/03/06 08:23:05;;;;;;;0.85;0.70;;;20.60;34.20;;;;;;5116025;28;20457;-79
2022/03/06 08:25:30;;;;;;;0.60;0.60;;;20.60;34.20;;;;;;5116178;28;20051;-79
2022/03/06 08:27:56;;;;;;;0.88;0.75;;;20.60;34.20;;;;;;5116098;28;20387;-78
2022/03/06 08:30:22;;;;;;;0.70;0.70;;;20.60;34.20;;;;;;5116238;28;20043;-79
2022/03/06 08:32:47;;;;;;;0.60;0.60;;;20.60;34.20;;;;;;5115823;28;20052;-79
2022/03/06 08:35:13;;;;;;;0.70;0.70;;;20.60;34.20;;;;;;5097446;28;20100;-79
2022/03/06 08:37:38;;;;;;;1.00;0.80;;;20.70;34.10;;;;;;5115804;28;20126;-78
2022/03/06 08:40:05;;;;;;;0.60;0.60;;;20.70;34.00;;;;;;5096124;28;20070;-79
2022/03/06 08:42:30;;;;;;;0.60;0.60;;;20.80;34.00;;;;;;5097395;28;20051;-79
2022/03/06 08:44:56;;;;;;;0.63;0.63;;;20.80;34.00;;;;;;5115732;28;20134;-79
2022/03/06 08:47:21;;;;;;;0.70;0.70;;;20.80;34.00;;;;;;5115679;28;20051;-79
2022/03/06 08:49:47;;;;;;;1.17;0.60;;;20.80;33.90;;;;;;5115557;28;20058;-79
2022/03/06 08:52:13;;;;;;;1.10;0.80;;;20.80;33.90;;;;;;5115520;28;20105;-78
2022/03/06 08:54:38;;;;;;;0.68;0.68;;;20.80;33.90;;;;;;5114260;28;20054;-78
2022/03/06 08:57:05;;;;;;;0.52;0.52;;;20.80;33.90;;;;;;5114285;28;20056;-79
2022/03/06 08:59:31;;;;;;;0.60;0.60;;;20.80;33.90;;;;;;5115109;28;20491;-78
2022/03/06 09:01:56;;;;;;;0.65;0.65;;;20.80;33.90;;;;;;5115232;28;20048;-78
2022/03/06 09:04:25;;;;;;;0.80;0.80;;;20.80;33.90;;;;;;5096059;28;20052;-78
2022/03/06 09:06:52;;;;;;;0.70;0.70;;;20.80;34.00;;;;;;5115315;28;20139;-78
2022/03/06 09:09:18;;;;;;;0.75;0.75;;;20.80;34.00;;;;;;5095957;28;20059;-79
2022/03/06 09:11:45;;;;;;;0.82;0.50;;;20.80;34.00;;;;;;5115120;28;20186;-79
2022/03/06 09:14:11;;;;;;;0.68;0.68;;;20.70;34.00;;;;;;5097143;28;20134;-79
2022/03/06 09:16:36;;;;;;;0.60;0.60;;;20.70;34.00;;;;;;5115118;28;20086;-79
2022/03/06 09:19:03;;;;;;;0.77;0.77;;;20.70;34.00;;;;;;5115094;28;20051;-78
2022/03/06 09:21:28;;;;;;;0.63;0.63;;;20.70;34.00;;;;;;5114898;28;20058;-79
2022/03/06 09:23:54;;;;;;;0.63;0.63;;;20.70;34.00;;;;;;5115306;28;20079;-79
2022/03/06 09:26:20;;;;;;;0.68;0.68;;;20.70;34.00;;;;;;5114987;28;20051;-78
2022/03/06 09:28:45;;;;;;;0.60;0.60;;;20.70;34.00;;;;;;5114881;28;20062;-79
2022/03/06 09:31:12;;;;;;;0.60;0.60;;;20.70;34.00;;;;;;5112122;28;20052;-79
2022/03/06 09:33:37;;;;;;;0.60;0.60;;;20.80;34.10;;;;;;5115146;28;20495;-79
2022/03/06 09:36:03;;;;;;;0.70;0.70;;;20.70;34.00;;;;;;5115149;28;20059;-78
2022/03/06 09:38:29;;;;;;;0.70;0.70;;;20.80;34.00;;;;;;5114774;28;20101;-79
2022/03/06 09:40:59;;;;;;;0.50;0.50;;;20.70;34.00;;;;;;5114609;28;20441;-79
2022/03/06 09:43:25;;;;;;;0.50;0.50;;;20.70;34.00;;;;;;5114941;28;20438;-78
2022/03/06 09:45:58;;;;;;;0.68;0.60;;;20.70;34.00;;;;;;5114695;28;20069;-79
2022/03/06 09:48:24;;;;;;;0.68;0.68;;;20.70;34.00;;;;;;5114770;28;20047;-79
2022/03/06 09:50:49;;;;;;;0.60;0.60;;;20.70;34.00;;;;;;5114544;28;20147;-79
2022/03/06 09:53:15;;;;;;;0.70;0.70;;;20.70;34.00;;;;;;5114798;28;20074;-79
2022/03/06 09:55:40;;;;;;;0.70;0.60;;;20.70;34.00;;;;;;5113811;28;20494;-79
2022/03/06 09:58:06;;;;;;;0.68;0.68;;;20.70;34.00;;;;;;5115128;28;20048;-79
2022/03/06 10:00:32;;;;;;;0.88;0.80;;;20.70;33.90;;;;;;5114317;28;20047;-79
2022/03/06 10:03:00;;;;;;;0.60;0.60;;;20.70;33.90;;;;;;5114785;28;20097;-79
2022/03/06 10:05:39;;;;;;;0.60;0.60;;;20.70;33.90;;;;;;5114384;28;20050;-79
2022/03/06 10:08:18;;;;;;;0.75;0.50;;;20.80;34.00;;;;;;5114300;28;20101;-79
2022/03/06 10:10:45;;;;;;;0.75;0.70;;;20.80;33.90;;;;;;5114400;28;20036;-79
2022/03/06 10:13:24;;;;;;;0.60;0.60;;;20.80;33.90;;;;;;5114259;28;20054;-79
2022/03/06 10:16:16;;;;;;;0.80;0.80;;;20.80;34.00;;;;;;5114027;28;20399;-79
2022/03/06 10:18:55;;;;;;;0.95;0.60;;;20.80;33.90;;;;;;5114066;28;20555;-79
2022/03/06 10:21:26;;;;;;;0.50;0.50;;;20.80;33.90;;;;;;5113879;28;20083;-79
2022/03/06 10:23:55;;;;;;;0.70;0.70;;;20.80;33.90;;;;;;5114401;28;20096;-79
2022/03/06 10:26:30;;;;;;;1.17;0.93;;;20.80;34.00;;;;;;5095828;28;20139;-79
2022/03/06 10:28:55;;;;;;;0.55;0.55;;;20.80;34.00;;;;;;5112455;28;20047;-79
2022/03/06 10:31:23;;;;;;;0.60;0.60;;;20.80;34.00;;;;;;5114006;28;20391;-79
2022/03/06 10:34:12;;;;;;;0.50;0.50;;;20.70;34.00;;;;;;5095960;28;20134;-79
2022/03/06 10:36:46;;;;;;;0.50;0.50;;;20.70;34.60;;;;;;5113777;28;20059;-79
2022/03/06 10:39:19;;;;;;;0.50;0.50;;;20.70;34.00;;;;;;5113755;28;20058;-79
2022/03/06 10:41:51;;;;;;;0.70;0.70;;;20.70;34.00;;;;;;5113666;28;20138;-78
2022/03/06 10:44:18;;;;;;;0.60;0.60;;;20.70;34.00;;;;;;5113745;28;20062;-79
2022/03/06 10:47:01;;;;;;;0.60;0.60;;;20.70;33.90;;;;;;5113628;28;20419;-79
2022/03/06 10:49:27;;;;;;;0.60;0.60;;;20.80;34.00;;;;;;5113555;28;20071;-79
2022/03/06 10:51:53;;;;;;;0.68;0.68;;;20.80;33.90;;;;;;5113577;28;20110;-79
2022/03/06 10:54:19;;;;;;;0.77;0.77;;;20.80;33.90;;;;;;5113633;28;20054;-79
2022/03/06 10:56:50;;;;;;;0.63;0.63;;;20.80;33.90;;;;;;5095087;28;20146;-79
2022/03/06 10:59:21;;;;;;;;;;;20.80;33.90;;;;;;5113891;28;20067;-79
2022/03/06 11:01:48;;;;;;;0.68;0.60;;;20.80;33.90;;;;;;5113226;28;19962;-79
2022/03/06 11:04:15;;;;;;;0.82;0.70;;;20.80;33.90;;;;;;5095131;28;20062;-79
2022/03/06 11:06:42;;;;;;;0.70;0.70;;;20.80;33.90;;;;;;5113348;28;20062;-79
2022/03/06 11:09:27;;;;;;;0.60;0.60;;;20.80;33.90;;;;;;5110124;28;20617;-79
2022/03/06 11:11:52;;;;;;;0.52;0.52;;;20.80;33.90;;;;;;5111948;28;20403;-79
2022/03/06 11:14:19;;;;;;;0.50;0.50;;;20.80;33.90;;;;;;5113399;28;20051;-79
2022/03/06 11:16:44;;;;;;;0.63;0.63;;;20.80;33.90;;;;;;5113222;28;20058;-79
2022/03/06 11:19:10;;;;;;;0.60;0.60;;;20.80;33.90;;;;;;5113029;28;20052;-79
2022/03/06 11:21:42;;;;;;;0.70;0.70;;;20.80;33.90;;;;;;5094781;28;20059;-79
2022/03/06 11:24:19;;;;;;;0.50;0.50;;;20.80;33.90;;;;;;5113078;28;20551;-79
2022/03/06 11:27:08;;;;;;;0.77;0.77;;;20.80;33.90;;;;;;5113012;28;20052;-79
2022/03/06 11:29:57;;;;;;;0.57;0.55;;;20.80;33.80;;;;;;5113112;28;20055;-79
2022/03/06 11:32:26;;;;;;;0.73;0.73;;;20.80;34.40;;;;;;5112550;28;20104;-79
2022/03/06 11:34:59;;;;;;;0.70;0.70;;;20.80;33.80;;;;;;5112959;28;20047;-79
2022/03/06 11:37:28;;;;;;;0.60;0.60;;;20.90;33.80;;;;;;5112674;28;20051;-78
2022/03/06 11:39:54;;;;;;;0.70;0.70;;;20.90;33.80;;;;;;5113283;28;20448;-79
2022/03/06 11:42:56;;;;;;;0.60;0.60;;;20.90;34.30;;;;;;5112964;28;20051;-79
2022/03/06 11:45:50;;;;;;;0.50;0.50;;;20.90;33.70;;;;;;5112917;28;20054;-79
2022/03/06 11:48:24;;;;;;;0.50;0.50;;;20.90;33.70;;;;;;5112958;28;20060;-79
2022/03/06 11:51:29;;;;;;;0.60;0.60;;;20.90;33.80;;;;;;5094614;28;20048;-79
2022/03/06 11:54:01;;;;;;;1.38;0.60;;;20.90;33.80;;;;;;5010290;28;20058;-79
2022/03/06 11:56:36;;;;;;;0.63;0.63;;;20.80;33.80;;;;;;5010467;28;20057;-79
2022/03/06 11:59:03;;;;;;;0.70;0.70;;;20.80;33.80;;;;;;5069383;28;20476;-79
2022/03/06 12:01:37;;;;;;;0.63;0.63;;;20.90;33.90;;;;;;5094868;28;20047;-79
2022/03/06 12:04:21;;;;;;;0.68;0.68;;;20.90;33.80;;;;;;5112844;28;20051;-79
2022/03/06 12:06:51;;;;;;;0.50;0.50;;;20.90;33.70;;;;;;5112375;28;20815;-78
2022/03/06 12:09:19;;;;;;;0.93;0.82;;;20.90;33.70;;;;;;5112933;28;20071;-79
2022/03/06 12:11:46;;;;;;;0.73;0.50;;;21.00;33.70;;;;;;5094374;28;20056;-79
2022/03/06 12:14:39;;;;;;;0.50;0.50;;;21.00;33.70;;;;;;5113035;28;20089;-79
2022/03/06 12:17:07;;;;;;;0.60;0.60;;;20.90;33.70;;;;;;5112502;28;20043;-79
2022/03/06 12:19:54;;;;;;;0.60;0.60;;;20.90;33.70;;;;;;5112470;28;20056;-79
2022/03/06 12:22:35;;;;;;;0.50;0.50;;;20.90;33.70;;;;;;5112195;28;20044;-79
2022/03/06 12:25:07;;;;;;;0.60;0.60;;;20.90;33.70;;;;;;5112427;28;20048;-79
2022/03/06 12:27:33;;;;;;;;;;;20.90;33.70;;;;;;5112670;28;20130;-79
2022/03/06 12:30:01;;;;;;;0.57;0.57;;;20.90;33.70;;;;;;5112334;28;20013;-79
2022/03/06 12:32:26;;;;;;;0.85;0.85;;;20.90;33.70;;;;;;5112602;28;20403;-79
2022/03/06 12:35:06;;;;;;;0.90;0.80;;;20.90;33.70;;;;;;5094098;28;20058;-79
2022/03/06 12:37:41;;;;;;;0.60;0.60;;;20.90;33.70;;;;;;5112038;28;20469;-78
2022/03/06 12:40:10;;;;;;;0.93;0.73;;;20.90;33.80;;;;;;5076935;28;20487;-79
2022/03/06 12:42:38;;;;;;;0.60;0.60;;;20.90;33.80;;;;;;5112418;28;20051;-79
2022/03/06 12:45:11;;;;;;;0.50;0.50;;;20.90;33.70;;;;;;5114105;28;20046;-79
2022/03/06 12:47:38;;;;;;;0.55;0.50;;;20.90;33.70;;;;;;5115484;28;20055;-79
2022/03/06 12:50:07;;;;;;;0.63;0.63;;;20.90;33.80;;;;;;5097254;28;20051;-79